createdAt,value
2023-04-16T00:01:59.225Z,12.43
2023-04-16T00:17:00.921Z,13.87
2023-04-16T00:32:02.575Z,13.87
2023-04-16T00:47:04.700Z,13.43
2023-04-16T01:02:09.212Z,12.97
2023-04-16T01:17:11.226Z,11.30
2023-04-16T01:32:12.907Z,10.50
2023-04-16T01:47:14.760Z,10.80
2023-04-16T02:02:16.644Z,10.40
2023-04-16T02:17:18.480Z,10.10
2023-04-16T02:32:20.829Z,10.43
2023-04-16T03:02:24.300Z,9.20
2023-04-16T03:17:26.083Z,10.07
2023-04-16T03:32:27.950Z,10.50
2023-04-16T03:47:29.790Z,9.53
2023-04-16T04:02:31.725Z,11.87
2023-04-16T04:17:33.446Z,9.60
2023-04-16T04:32:35.177Z,10.93
2023-04-16T04:47:36.889Z,10.47
2023-04-16T05:02:38.802Z,10.97
2023-04-16T05:32:42.382Z,10.23
2023-04-16T05:47:44.367Z,11.37
2023-04-16T06:02:46.257Z,11.03
2023-04-16T06:17:48.023Z,10.47
2023-04-16T06:32:49.970Z,12.50
2023-04-16T06:47:52.458Z,12.87
2023-04-16T07:02:57.002Z,13.60
2023-04-16T07:18:00.029Z,12.83
2023-04-16T07:33:05.945Z,12.90
2023-04-16T07:48:07.730Z,14.17
2023-04-16T08:03:09.681Z,14.13
2023-04-16T08:18:15.600Z,16.10
2023-04-16T08:33:17.262Z,15.53
2023-04-16T08:48:21.437Z,17.80
2023-04-16T09:03:23.366Z,15.97
2023-04-16T09:18:25.828Z,20.47
2023-04-16T09:33:27.540Z,16.27
2023-04-16T09:48:33.709Z,17.07
2023-04-16T10:03:37.074Z,20.67
2023-04-16T10:18:41.037Z,19.40
2023-04-16T10:33:44.305Z,19.33
2023-04-16T10:48:50.195Z,19.70
2023-04-16T11:03:52.572Z,23.07
2023-04-16T11:18:56.345Z,21.07
2023-04-16T11:33:59.507Z,22.13
2023-04-16T11:49:01.191Z,22.77
2023-04-16T12:04:03.653Z,22.00
2023-04-16T12:19:06.049Z,23.97
2023-04-16T12:34:07.923Z,24.77
2023-04-16T12:49:11.309Z,24.33
2023-04-16T13:04:13.304Z,23.93
2023-04-16T13:19:16.028Z,22.60
2023-04-16T13:34:17.804Z,19.87
2023-04-16T13:49:19.550Z,17.73
2023-04-16T14:04:22.542Z,11.93
2023-04-16T14:19:24.329Z,14.00
2023-04-16T14:34:26.125Z,16.50
2023-04-16T14:49:27.782Z,17.33
2023-04-16T15:04:30.151Z,16.87
2023-04-16T15:19:31.948Z,17.60
2023-04-16T15:34:33.576Z,14.43
2023-04-16T15:49:35.580Z,15.33
2023-04-16T16:04:37.380Z,15.83
2023-04-16T16:19:39.179Z,14.53
2023-04-16T16:34:42.025Z,14.10
2023-04-16T16:49:44.611Z,14.00
2023-04-16T17:04:46.356Z,13.37
2023-04-16T17:19:47.986Z,13.60
2023-04-16T17:34:49.660Z,13.67
2023-04-16T17:49:57.177Z,13.30
2023-04-16T18:04:58.941Z,12.03
2023-04-16T18:20:00.826Z,12.23
2023-04-16T18:35:02.539Z,11.73
2023-04-16T18:50:04.577Z,9.77
2023-04-16T19:05:06.745Z,12.60
2023-04-16T19:20:11.516Z,11.00
2023-04-16T19:35:14.553Z,10.23
2023-04-16T19:50:16.294Z,11.00
2023-04-16T20:05:17.979Z,10.73
2023-04-16T20:20:19.708Z,12.70
2023-04-16T20:35:21.344Z,12.17
2023-04-16T21:05:26.595Z,10.83
2023-04-16T21:20:30.360Z,11.97
2023-04-16T21:35:33.235Z,11.97
2023-04-16T21:50:34.920Z,11.17
2023-04-16T22:05:36.520Z,12.23
2023-04-16T22:20:39.785Z,10.93
2023-04-16T22:35:41.431Z,11.00
2023-04-16T22:50:48.678Z,8.90
2023-04-16T23:05:50.412Z,11.97
2023-04-16T23:20:53.175Z,10.30
2023-04-16T23:35:54.851Z,11.07
2023-04-16T23:50:56.537Z,12.10
